Main page
METAR-TAF:

METAR-TAF

Airports :

Foz do Iguaçu International Airport

Foz do Iguaçu, Paraná, Brazil

latitude: 25-31S, longitude: 054-35W, elevation: 180 m

Current weather observation

The report was made 42 minutes ago, at 08:00 UTC
Wind 9 kt from the North/Northeast
Temperature 26°C
Humidity 48%
Pressure 1013 hPa
Visibility 10 km or more
no clouds below 1500 m and no cumulonimbus

METAR: SBFI 150800Z 02009KT CAVOK 26/14 Q1013

Time: 05:42 (08:42 UTC)

Forecast

The report was made 5 hours and 42 minutes ago, at 03:00 UTC
Forecast valid from 15 at 06 UTC to 16 at 06 UTC
Wind 8 kt from the North/Northeast
Visibility 10 km or more
no clouds below 1500 m and no cumulonimbus

TAF: SBFI 150300Z 1506/1606 02008KT CAVOK TX29/1518Z TN22/1606Z RMK PFR

Weather observations and forecasts of more than 4000 airports (METAR and TAF reports).

The available stations are represented by yellow and red dots on the map.

Hover mouse over dot to see the name of the station.

Then click to see weather observations and forecasts.

To change the map : click on the green buttons with a black cross to zoom in, on the green button with a dash to zoom out, or on the green arrows for adjacent maps.


METAR-TAF: